Time;durP1;ratioP1;P1;durP2;ratioP2;P2;SDS_P1;SDS_P2;PMS_P1;PMS_P2;Temp;Humidity;BMP_temperature;BMP_pressure;BME280_temperature;BME280_humidity;BME280_pressure;Samples;Min_cycle;Max_cycle;Signal;HPM_P1;HPM_P2
2022/10/30 00:01:01;;;;;;;15.80;8.53;;;;;;;;;;5073938;28;20482;-69
2022/10/30 00:03:29;;;;;;;15.30;9.10;;;;;;;;;;5073595;28;20772;-69
2022/10/30 00:05:56;;;;;;;18.00;7.57;;;;;;;;;;5072836;28;20487;-70
2022/10/30 00:08:24;;;;;;;19.43;9.50;;;;;;;;;;5074796;28;20457;-70
2022/10/30 00:10:52;;;;;;;20.13;9.50;;;;;;;;;;5074992;28;20445;-70
2022/10/30 00:13:19;;;;;;;12.97;7.87;;;;;;;;;;5070176;28;20460;-70
2022/10/30 00:15:49;;;;;;;15.40;8.20;;;;;;;;;;5072207;28;20531;-69
2022/10/30 00:18:16;;;;;;;13.10;8.30;;;;;;;;;;5073047;28;20503;-69
2022/10/30 00:20:43;;;;;;;13.83;8.30;;;;;;;;;;5075260;28;20783;-69
2022/10/30 00:23:11;;;;;;;14.47;8.67;;;;;;;;;;5074318;28;20464;-71
2022/10/30 00:25:38;;;;;;;15.63;7.67;;;;;;;;;;5073732;28;20455;-70
2022/10/30 00:28:06;;;;;;;22.63;8.60;;;;;;;;;;5064186;28;20476;-72
2022/10/30 00:30:33;;;;;;;21.73;8.47;;;;;;;;;;5054115;28;20508;-71
2022/10/30 00:33:00;;;;;;;14.70;8.13;;;;;;;;;;5053775;28;20496;-70
2022/10/30 00:35:27;;;;;;;13.83;9.43;;;;;;;;;;5053268;28;20454;-70
2022/10/30 00:37:54;;;;;;;14.60;8.00;;;;;;;;;;5054385;28;20461;-70
2022/10/30 00:40:22;;;;;;;13.43;8.60;;;;;;;;;;5053432;28;20921;-70
2022/10/30 00:42:49;;;;;;;19.07;9.83;;;;;;;;;;5053145;28;20473;-70
2022/10/30 00:45:34;;;;;;;14.50;7.87;;;;;;;;;;5054739;28;20519;-70
2022/10/30 00:48:04;;;;;;;10.40;8.20;;;;;;;;;;5053829;28;20480;-70
2022/10/30 00:50:32;;;;;;;19.43;9.40;;;;;;;;;;5053329;28;20445;-70
2022/10/30 00:53:00;;;;;;;12.37;7.67;;;;;;;;;;5053801;28;20957;-70
2022/10/30 00:55:31;;;;;;;14.57;7.70;;;;;;;;;;5053425;28;20499;-70
2022/10/30 00:57:58;;;;;;;35.43;11.17;;;;;;;;;;5053857;28;20472;-70
2022/10/30 01:00:27;;;;;;;20.30;8.37;;;;;;;;;;5052985;28;20488;-70
2022/10/30 01:02:54;;;;;;;15.00;8.10;;;;;;;;;;5064283;28;20903;-70
2022/10/30 01:05:22;;;;;;;19.20;9.00;;;;;;;;;;5060030;28;20456;-69
2022/10/30 01:07:49;;;;;;;15.47;8.93;;;;;;;;;;5071021;28;20780;-69
2022/10/30 01:10:16;;;;;;;15.00;7.80;;;;;;;;;;5074214;28;20495;-70
2022/10/30 01:12:44;;;;;;;13.43;8.10;;;;;;;;;;5074436;28;20555;-70
2022/10/30 01:15:12;;;;;;;14.57;9.20;;;;;;;;;;5074772;28;20474;-69
2022/10/30 01:17:58;;;;;;;13.63;8.37;;;;;;;;;;5073442;28;20465;-70
2022/10/30 01:20:43;;;;;;;13.23;8.80;;;;;;;;;;5073075;28;20827;-69
2022/10/30 01:23:15;;;;;;;17.70;7.63;;;;;;;;;;5073391;28;20449;-69
2022/10/30 01:25:48;;;;;;;22.00;8.20;;;;;;;;;;5073507;28;20498;-69
2022/10/30 01:28:26;;;;;;;14.90;8.20;;;;;;;;;;5073453;28;20456;-70
2022/10/30 01:31:00;;;;;;;10.83;8.00;;;;;;;;;;5070682;28;20538;-70
2022/10/30 01:33:31;;;;;;;16.40;9.27;;;;;;;;;;5053199;28;20465;-70
2022/10/30 01:36:01;;;;;;;18.63;8.70;;;;;;;;;;5052968;28;20453;-69
2022/10/30 01:38:31;;;;;;;18.33;8.10;;;;;;;;;;5053274;28;20514;-70
2022/10/30 01:40:58;;;;;;;15.73;8.70;;;;;;;;;;5052899;28;20524;-70
2022/10/30 01:43:26;;;;;;;13.60;7.57;;;;;;;;;;5052685;28;20956;-69
2022/10/30 01:46:03;;;;;;;14.30;7.13;;;;;;;;;;5054643;28;20518;-69
2022/10/30 01:48:44;;;;;;;14.03;7.40;;;;;;;;;;5056671;28;20456;-69
2022/10/30 01:51:16;;;;;;;12.43;8.30;;;;;;;;;;5056161;28;20555;-69
2022/10/30 01:53:47;;;;;;;12.20;7.37;;;;;;;;;;5056086;28;20738;-69
2022/10/30 01:56:19;;;;;;;12.40;8.17;;;;;;;;;;5056497;28;20464;-69
2022/10/30 01:58:51;;;;;;;13.27;8.23;;;;;;;;;;5055657;28;20654;-70
2022/10/30 02:01:18;;;;;;;16.80;8.33;;;;;;;;;;5056190;28;20460;-69
2022/10/30 02:03:46;;;;;;;16.70;7.77;;;;;;;;;;5056551;28;20461;-69
2022/10/30 02:06:13;;;;;;;16.03;8.20;;;;;;;;;;5056487;28;20862;-70
2022/10/30 02:08:40;;;;;;;13.60;7.60;;;;;;;;;;5055688;28;20619;-69
2022/10/30 02:11:07;;;;;;;13.20;7.07;;;;;;;;;;5056201;28;20661;-70
2022/10/30 02:13:34;;;;;;;15.53;8.20;;;;;;;;;;5055996;28;20464;-69
2022/10/30 02:16:02;;;;;;;12.87;7.97;;;;;;;;;;5056400;28;20865;-69
2022/10/30 02:18:29;;;;;;;18.90;9.10;;;;;;;;;;5055173;28;20535;-69
2022/10/30 02:20:57;;;;;;;11.97;7.50;;;;;;;;;;5055364;28;20751;-70
2022/10/30 02:23:24;;;;;;;9.40;6.67;;;;;;;;;;5055820;28;20491;-70
2022/10/30 02:25:51;;;;;;;19.30;7.70;;;;;;;;;;5056029;28;20481;-71
2022/10/30 02:28:18;;;;;;;13.03;8.23;;;;;;;;;;5056263;28;20583;-71
2022/10/30 02:30:45;;;;;;;17.80;8.17;;;;;;;;;;5056140;28;20464;-71
2022/10/30 02:33:12;;;;;;;21.83;7.53;;;;;;;;;;5055669;28;20453;-70
2022/10/30 02:35:39;;;;;;;12.37;7.80;;;;;;;;;;5055526;28;20462;-71
2022/10/30 02:38:07;;;;;;;12.60;6.73;;;;;;;;;;5055321;28;21038;-70
2022/10/30 02:40:34;;;;;;;11.80;7.93;;;;;;;;;;5056130;28;20485;-71
2022/10/30 02:43:01;;;;;;;13.00;8.00;;;;;;;;;;5055677;28;20445;-70
2022/10/30 02:45:28;;;;;;;16.70;7.40;;;;;;;;;;5055471;28;20453;-71
2022/10/30 02:47:55;;;;;;;19.63;6.63;;;;;;;;;;5055793;28;20756;-70
2022/10/30 02:50:21;;;;;;;10.63;6.70;;;;;;;;;;5054643;28;20983;-71
2022/10/30 02:52:48;;;;;;;10.87;7.00;;;;;;;;;;5055880;28;20453;-71
2022/10/30 02:55:16;;;;;;;15.33;7.30;;;;;;;;;;5055670;28;20453;-71
2022/10/30 02:57:43;;;;;;;12.50;6.90;;;;;;;;;;5054399;28;20950;-70
2022/10/30 03:00:11;;;;;;;11.33;6.80;;;;;;;;;;5055142;28;20524;-70
2022/10/30 03:02:38;;;;;;;11.20;7.17;;;;;;;;;;5051525;28;20457;-70
2022/10/30 03:05:06;;;;;;;20.57;7.40;;;;;;;;;;5057484;28;20525;-71
2022/10/30 03:07:32;;;;;;;12.80;6.20;;;;;;;;;;5061181;28;20468;-70
2022/10/30 03:09:59;;;;;;;15.93;7.83;;;;;;;;;;5054964;28;20457;-71
2022/10/30 03:12:27;;;;;;;15.83;7.60;;;;;;;;;;5055542;28;20579;-70
2022/10/30 03:14:54;;;;;;;13.57;7.80;;;;;;;;;;5053220;28;20457;-70
2022/10/30 03:17:21;;;;;;;14.67;6.60;;;;;;;;;;5052466;28;20477;-70
2022/10/30 03:19:48;;;;;;;9.93;7.43;;;;;;;;;;5052885;28;20493;-70
2022/10/30 03:22:21;;;;;;;15.83;7.47;;;;;;;;;;5054189;28;20442;-71
2022/10/30 03:24:48;;;;;;;8.70;5.83;;;;;;;;;;5054471;28;20873;-70
2022/10/30 03:27:15;;;;;;;16.50;7.77;;;;;;;;;;5054279;28;20481;-70
2022/10/30 03:29:42;;;;;;;10.93;5.80;;;;;;;;;;5052559;28;20560;-70
2022/10/30 03:32:10;;;;;;;9.23;6.43;;;;;;;;;;5054350;28;20458;-70
2022/10/30 03:34:37;;;;;;;14.97;8.00;;;;;;;;;;5053268;28;20458;-70
2022/10/30 03:37:03;;;;;;;9.50;5.93;;;;;;;;;;5053086;28;20531;-70
2022/10/30 03:39:30;;;;;;;13.20;6.43;;;;;;;;;;5053772;28;20500;-70
2022/10/30 03:41:57;;;;;;;16.60;6.50;;;;;;;;;;5053468;28;20540;-70
2022/10/30 03:44:24;;;;;;;8.83;6.90;;;;;;;;;;5054013;28;20851;-70
2022/10/30 03:46:52;;;;;;;16.10;6.60;;;;;;;;;;5053045;28;20489;-70
2022/10/30 03:49:19;;;;;;;11.33;6.40;;;;;;;;;;5054685;28;20536;-70
2022/10/30 03:51:46;;;;;;;9.70;7.70;;;;;;;;;;5054560;28;20464;-70
2022/10/30 03:54:13;;;;;;;16.80;10.13;;;;;;;;;;5053620;28;20481;-70
2022/10/30 03:56:40;;;;;;;11.03;6.27;;;;;;;;;;5054037;28;20775;-70
2022/10/30 03:59:07;;;;;;;14.87;7.60;;;;;;;;;;5054499;28;20492;-70
2022/10/30 04:01:34;;;;;;;11.30;7.17;;;;;;;;;;5054555;28;20453;-70
2022/10/30 04:04:02;;;;;;;17.53;7.93;;;;;;;;;;5052760;28;20478;-70
2022/10/30 04:06:29;;;;;;;13.57;7.10;;;;;;;;;;5054094;28;20469;-70
2022/10/30 04:08:56;;;;;;;14.93;7.37;;;;;;;;;;5051321;28;20454;-70
2022/10/30 04:11:23;;;;;;;8.83;5.30;;;;;;;;;;5055822;28;20718;-70
2022/10/30 04:13:50;;;;;;;13.60;7.80;;;;;;;;;;5053327;28;20446;-70
2022/10/30 04:16:17;;;;;;;8.97;5.87;;;;;;;;;;5053977;28;20454;-70
2022/10/30 04:18:44;;;;;;;11.50;6.70;;;;;;;;;;5067130;28;20471;-70
2022/10/30 04:21:11;;;;;;;11.07;6.43;;;;;;;;;;5074852;28;20483;-71
2022/10/30 04:23:39;;;;;;;12.20;7.17;;;;;;;;;;5074556;28;20546;-71
2022/10/30 04:26:06;;;;;;;9.10;7.10;;;;;;;;;;5074472;28;20488;-70
2022/10/30 04:28:32;;;;;;;10.53;7.03;;;;;;;;;;5074479;28;20449;-70
2022/10/30 04:30:59;;;;;;;9.73;6.53;;;;;;;;;;5073023;28;20834;-71
2022/10/30 04:33:27;;;;;;;12.00;6.43;;;;;;;;;;5073632;28;20463;-70
2022/10/30 04:35:55;;;;;;;15.67;6.57;;;;;;;;;;5073354;28;20472;-70
2022/10/30 04:38:22;;;;;;;13.93;6.57;;;;;;;;;;5071420;28;20451;-71
2022/10/30 04:40:50;;;;;;;10.73;5.90;;;;;;;;;;5051834;28;20488;-70
2022/10/30 04:43:17;;;;;;;8.77;5.77;;;;;;;;;;5053802;28;20452;-71
2022/10/30 04:45:44;;;;;;;9.50;6.70;;;;;;;;;;5074117;28;20453;-71
2022/10/30 04:48:11;;;;;;;6.40;5.47;;;;;;;;;;5074120;28;20543;-71
2022/10/30 04:50:39;;;;;;;9.47;6.50;;;;;;;;;;5073678;28;20457;-71
2022/10/30 04:53:06;;;;;;;9.97;6.50;;;;;;;;;;5073841;28;20903;-70
2022/10/30 04:55:34;;;;;;;16.37;7.37;;;;;;;;;;5074556;28;20480;-70
2022/10/30 04:58:02;;;;;;;10.73;6.70;;;;;;;;;;5074009;28;20487;-70
2022/10/30 05:00:29;;;;;;;13.53;6.60;;;;;;;;;;5073594;28;20927;-70
2022/10/30 05:02:58;;;;;;;12.17;8.57;;;;;;;;;;5073783;28;20448;-71
2022/10/30 05:05:25;;;;;;;10.63;6.60;;;;;;;;;;5073390;28;20534;-70
2022/10/30 05:07:52;;;;;;;15.13;6.60;;;;;;;;;;5074585;28;20876;-71
2022/10/30 05:10:19;;;;;;;8.97;5.80;;;;;;;;;;5072847;28;20545;-70
2022/10/30 05:12:47;;;;;;;10.07;6.70;;;;;;;;;;5070427;28;20555;-70
2022/10/30 05:15:14;;;;;;;13.80;6.37;;;;;;;;;;5055572;28;20552;-70
2022/10/30 05:17:41;;;;;;;9.07;6.40;;;;;;;;;;5051690;28;20492;-70
2022/10/30 05:20:09;;;;;;;11.67;7.90;;;;;;;;;;5052993;28;20562;-70
2022/10/30 05:22:36;;;;;;;9.23;5.40;;;;;;;;;;5054616;28;21012;-71
2022/10/30 05:25:03;;;;;;;9.70;7.10;;;;;;;;;;5055267;28;20900;-70
2022/10/30 05:27:30;;;;;;;8.50;5.73;;;;;;;;;;5057172;28;20472;-70
2022/10/30 05:29:57;;;;;;;13.13;5.63;;;;;;;;;;5074559;28;20448;-70
2022/10/30 05:32:27;;;;;;;13.83;6.40;;;;;;;;;;5075585;28;20541;-72
2022/10/30 05:34:57;;;;;;;9.27;6.50;;;;;;;;;;5077691;28;20448;-71
2022/10/30 05:37:24;;;;;;;11.83;5.90;;;;;;;;;;5077169;28;20502;-70
2022/10/30 05:39:51;;;;;;;11.73;5.20;;;;;;;;;;5076036;28;20584;-70
2022/10/30 05:42:18;;;;;;;6.80;5.20;;;;;;;;;;5075676;28;20452;-70
2022/10/30 05:44:45;;;;;;;11.97;6.57;;;;;;;;;;5077148;28;20459;-70
2022/10/30 05:47:13;;;;;;;10.37;5.10;;;;;;;;;;5076821;28;20495;-70
2022/10/30 05:49:40;;;;;;;8.60;5.87;;;;;;;;;;5065874;28;20484;-70
2022/10/30 05:52:07;;;;;;;13.90;6.50;;;;;;;;;;5054836;28;20462;-70
2022/10/30 05:54:34;;;;;;;9.90;5.43;;;;;;;;;;5055067;28;20471;-70
2022/10/30 05:57:01;;;;;;;8.47;5.77;;;;;;;;;;5067228;28;20507;-70
2022/10/30 05:59:28;;;;;;;8.90;5.60;;;;;;;;;;5062292;28;20485;-70
2022/10/30 06:01:55;;;;;;;11.47;6.17;;;;;;;;;;5054736;28;20554;-70
2022/10/30 06:04:26;;;;;;;9.33;5.37;;;;;;;;;;5055410;28;20840;-70
2022/10/30 06:06:53;;;;;;;7.60;4.80;;;;;;;;;;5063673;28;20468;-70
2022/10/30 06:09:20;;;;;;;9.00;5.70;;;;;;;;;;5065802;28;20464;-70
2022/10/30 06:11:47;;;;;;;14.27;5.43;;;;;;;;;;5055990;28;20576;-70
2022/10/30 06:14:14;;;;;;;11.27;5.77;;;;;;;;;;5054447;28;20461;-70
2022/10/30 06:16:40;;;;;;;18.43;5.90;;;;;;;;;;5055435;28;20912;-70
2022/10/30 06:19:07;;;;;;;11.00;5.27;;;;;;;;;;5055491;28;20484;-70
2022/10/30 06:21:35;;;;;;;14.47;7.90;;;;;;;;;;5052020;28;20527;-70
2022/10/30 06:24:02;;;;;;;12.70;5.90;;;;;;;;;;5055251;28;20908;-70
2022/10/30 06:26:29;;;;;;;9.97;5.43;;;;;;;;;;5053223;28;21000;-70
2022/10/30 06:28:56;;;;;;;12.13;5.30;;;;;;;;;;5055331;28;20522;-70
2022/10/30 06:31:23;;;;;;;9.83;6.00;;;;;;;;;;5053479;28;20472;-70
2022/10/30 06:33:50;;;;;;;6.83;4.80;;;;;;;;;;5052984;28;20446;-70
2022/10/30 06:36:17;;;;;;;14.93;5.87;;;;;;;;;;5055869;28;20814;-70
2022/10/30 06:38:44;;;;;;;7.40;5.50;;;;;;;;;;5053350;28;20553;-70
2022/10/30 06:41:13;;;;;;;11.03;5.37;;;;;;;;;;5057504;28;20528;-71
2022/10/30 06:43:42;;;;;;;8.37;5.50;;;;;;;;;;5055384;28;20437;-71
2022/10/30 06:46:09;;;;;;;10.17;5.20;;;;;;;;;;5055587;28;20466;-70
2022/10/30 06:48:36;;;;;;;13.37;5.60;;;;;;;;;;5056340;28;20449;-70
2022/10/30 06:51:03;;;;;;;7.27;5.80;;;;;;;;;;5056001;28;20873;-71
2022/10/30 06:53:30;;;;;;;8.67;4.93;;;;;;;;;;5054928;28;20449;-70
2022/10/30 06:55:58;;;;;;;8.63;4.93;;;;;;;;;;5055433;28;20764;-70
2022/10/30 06:58:26;;;;;;;12.83;5.13;;;;;;;;;;5054939;28;20454;-70
2022/10/30 07:00:53;;;;;;;13.43;7.43;;;;;;;;;;5073159;28;20484;-70
2022/10/30 07:03:20;;;;;;;9.07;5.70;;;;;;;;;;5054053;28;20453;-69
2022/10/30 07:05:47;;;;;;;12.33;5.17;;;;;;;;;;5057510;28;20875;-70
2022/10/30 07:08:14;;;;;;;15.37;5.53;;;;;;;;;;5053865;28;20548;-70
2022/10/30 07:10:41;;;;;;;6.20;4.13;;;;;;;;;;5053638;28;20838;-70
2022/10/30 07:13:09;;;;;;;12.17;5.73;;;;;;;;;;5064913;28;20455;-70
2022/10/30 07:15:39;;;;;;;9.20;5.30;;;;;;;;;;5074617;28;20472;-70
2022/10/30 07:18:06;;;;;;;7.80;5.93;;;;;;;;;;5075114;28;20504;-70
2022/10/30 07:20:34;;;;;;;10.87;7.20;;;;;;;;;;5071886;28;20929;-69
2022/10/30 07:23:01;;;;;;;7.37;5.40;;;;;;;;;;5075122;28;20829;-70
2022/10/30 07:25:29;;;;;;;9.40;5.40;;;;;;;;;;5073284;28;20461;-69
2022/10/30 07:27:56;;;;;;;21.43;6.80;;;;;;;;;;5074138;28;20756;-71
2022/10/30 07:30:26;;;;;;;8.70;5.03;;;;;;;;;;5074346;28;20453;-70
2022/10/30 07:33:03;;;;;;;8.60;5.10;;;;;;;;;;5073395;28;20468;-70
2022/10/30 07:35:30;;;;;;;8.47;5.90;;;;;;;;;;5057445;28;20475;-70
2022/10/30 07:38:02;;;;;;;7.17;5.50;;;;;;;;;;5052408;28;20489;-70
2022/10/30 07:40:32;;;;;;;9.77;5.93;;;;;;;;;;5052191;28;20571;-70
2022/10/30 07:42:59;;;;;;;11.20;5.00;;;;;;;;;;5071008;28;20457;-71
2022/10/30 07:45:28;;;;;;;9.03;5.37;;;;;;;;;;5074103;28;20604;-70
2022/10/30 07:47:58;;;;;;;13.10;7.00;;;;;;;;;;5075195;28;20465;-70
2022/10/30 07:50:25;;;;;;;9.77;6.33;;;;;;;;;;5074028;28;20496;-70
2022/10/30 07:52:51;;;;;;;7.60;5.47;;;;;;;;;;5074757;28;20749;-70
2022/10/30 07:55:18;;;;;;;15.53;6.20;;;;;;;;;;5075055;28;20453;-70
2022/10/30 07:57:45;;;;;;;10.50;6.13;;;;;;;;;;5074943;28;20456;-69
2022/10/30 08:00:14;;;;;;;11.90;5.80;;;;;;;;;;5072283;28;20522;-71
2022/10/30 08:02:43;;;;;;;13.93;5.90;;;;;;;;;;5073709;28;20504;-71
2022/10/30 08:05:10;;;;;;;14.23;6.10;;;;;;;;;;5067910;28;20906;-70
2022/10/30 08:07:37;;;;;;;10.63;5.17;;;;;;;;;;5063851;28;20520;-70
2022/10/30 08:10:09;;;;;;;12.60;5.70;;;;;;;;;;5062205;28;20449;-71
2022/10/30 08:12:37;;;;;;;8.77;5.30;;;;;;;;;;5063648;28;20460;-70
2022/10/30 08:15:04;;;;;;;11.97;5.80;;;;;;;;;;5059826;28;20453;-70
2022/10/30 08:17:31;;;;;;;7.03;5.27;;;;;;;;;;5063623;28;20492;-70
2022/10/30 08:19:59;;;;;;;9.10;5.60;;;;;;;;;;5062113;28;20485;-70
2022/10/30 08:22:26;;;;;;;9.63;5.43;;;;;;;;;;5065621;28;20811;-70
2022/10/30 08:24:53;;;;;;;12.43;7.70;;;;;;;;;;5064130;28;20439;-70
2022/10/30 08:27:20;;;;;;;8.40;5.13;;;;;;;;;;5064271;28;20457;-70
2022/10/30 08:29:47;;;;;;;13.13;6.10;;;;;;;;;;5062916;28;20972;-70
2022/10/30 08:32:14;;;;;;;15.90;8.93;;;;;;;;;;5070464;28;20479;-70
2022/10/30 08:34:41;;;;;;;8.60;5.50;;;;;;;;;;5074403;28;21125;-70
2022/10/30 08:37:11;;;;;;;7.53;5.03;;;;;;;;;;5073050;28;20480;-70
2022/10/30 08:39:39;;;;;;;13.07;5.27;;;;;;;;;;5072599;28;20520;-71
2022/10/30 08:42:06;;;;;;;10.83;5.20;;;;;;;;;;5074121;28;20487;-71
2022/10/30 08:44:33;;;;;;;9.93;6.10;;;;;;;;;;5072769;28;20480;-71
2022/10/30 08:47:00;;;;;;;10.20;5.93;;;;;;;;;;5054840;28;20499;-70
2022/10/30 08:49:27;;;;;;;10.07;5.53;;;;;;;;;;5071490;28;20476;-70
2022/10/30 08:51:57;;;;;;;9.27;4.90;;;;;;;;;;5051835;28;20468;-70
2022/10/30 08:54:24;;;;;;;9.50;5.33;;;;;;;;;;5060797;28;20698;-70
2022/10/30 08:56:51;;;;;;;10.80;6.10;;;;;;;;;;5060587;28;20461;-70
2022/10/30 08:59:18;;;;;;;13.07;5.33;;;;;;;;;;5056002;28;20453;-70
2022/10/30 09:01:46;;;;;;;8.93;5.30;;;;;;;;;;5074335;28;20456;-71
2022/10/30 09:04:13;;;;;;;9.80;5.53;;;;;;;;;;5064054;28;20449;-71
2022/10/30 09:06:40;;;;;;;12.43;5.73;;;;;;;;;;5055589;28;20472;-71
2022/10/30 09:09:07;;;;;;;8.67;5.10;;;;;;;;;;5068904;28;20518;-71
2022/10/30 09:11:35;;;;;;;10.90;5.10;;;;;;;;;;5055547;28;21022;-71
2022/10/30 09:14:02;;;;;;;9.80;5.17;;;;;;;;;;5060848;28;20473;-71
2022/10/30 09:16:29;;;;;;;7.83;4.60;;;;;;;;;;5055754;28;20492;-71
2022/10/30 09:18:58;;;;;;;8.67;5.00;;;;;;;;;;5073599;28;20452;-72
2022/10/30 09:21:31;;;;;;;8.20;4.50;;;;;;;;;;5067721;28;20774;-72
2022/10/30 09:23:58;;;;;;;15.43;5.67;;;;;;;;;;5058207;28;20456;-71
2022/10/30 09:26:27;;;;;;;12.60;5.20;;;;;;;;;;5053727;28;20465;-71
2022/10/30 09:28:55;;;;;;;11.13;5.30;;;;;;;;;;5053372;28;20441;-71
2022/10/30 09:31:22;;;;;;;11.23;5.90;;;;;;;;;;5054010;28;21089;-71
2022/10/30 09:33:49;;;;;;;12.77;5.57;;;;;;;;;;5054837;28;20449;-72
2022/10/30 09:36:16;;;;;;;7.17;5.07;;;;;;;;;;5055108;28;20468;-72
2022/10/30 09:38:43;;;;;;;10.10;5.50;;;;;;;;;;5061789;28;20760;-71
2022/10/30 09:41:25;;;;;;;10.50;5.30;;;;;;;;;;5058705;28;20492;-71
2022/10/30 09:44:01;;;;;;;12.20;5.60;;;;;;;;;;5058176;28;20460;-69
2022/10/30 09:46:37;;;;;;;11.70;5.63;;;;;;;;;;5061362;28;20503;-71
2022/10/30 09:49:09;;;;;;;9.37;5.43;;;;;;;;;;5058589;28;20471;-70
2022/10/30 09:51:45;;;;;;;14.93;5.90;;;;;;;;;;5059337;28;20469;-71
2022/10/30 09:54:15;;;;;;;9.50;5.10;;;;;;;;;;5062617;28;20488;-71
2022/10/30 09:56:44;;;;;;;16.70;5.20;;;;;;;;;;5062026;28;20467;-70
2022/10/30 09:59:16;;;;;;;18.67;5.00;;;;;;;;;;5061290;28;20456;-70
2022/10/30 10:01:48;;;;;;;12.40;5.20;;;;;;;;;;5064460;28;20464;-70
2022/10/30 10:04:24;;;;;;;9.87;4.30;;;;;;;;;;5062321;28;20471;-70
2022/10/30 10:06:53;;;;;;;10.03;5.07;;;;;;;;;;5061645;28;20474;-70
2022/10/30 10:09:22;;;;;;;10.27;4.30;;;;;;;;;;5060555;28;20742;-70
2022/10/30 10:11:51;;;;;;;13.30;4.90;;;;;;;;;;5059006;28;20493;-71
2022/10/30 10:14:21;;;;;;;7.83;4.73;;;;;;;;;;5059100;28;20460;-71
2022/10/30 10:16:50;;;;;;;7.27;4.50;;;;;;;;;;5058830;28;20900;-71
2022/10/30 10:19:21;;;;;;;11.60;4.70;;;;;;;;;;5059803;28;20579;-72
2022/10/30 10:21:51;;;;;;;11.83;4.90;;;;;;;;;;5062378;28;20555;-71
2022/10/30 10:24:22;;;;;;;7.00;4.20;;;;;;;;;;5058405;28;20495;-71
2022/10/30 10:26:50;;;;;;;9.93;4.50;;;;;;;;;;5060136;28;20508;-71
2022/10/30 10:29:25;;;;;;;9.20;5.27;;;;;;;;;;5060130;28;20466;-71
2022/10/30 10:31:56;;;;;;;9.07;4.83;;;;;;;;;;5064033;28;20563;-71
2022/10/30 10:34:41;;;;;;;15.80;4.87;;;;;;;;;;5062863;28;20495;-71
2022/10/30 10:37:13;;;;;;;13.57;4.60;;;;;;;;;;5062798;28;20509;-71
2022/10/30 10:40:00;;;;;;;11.07;4.60;;;;;;;;;;5062759;28;20535;-71
2022/10/30 10:42:35;;;;;;;13.77;5.97;;;;;;;;;;5059750;28;20913;-71
2022/10/30 10:45:24;;;;;;;13.63;4.53;;;;;;;;;;5074348;28;20448;-71
2022/10/30 10:48:03;;;;;;;11.10;5.17;;;;;;;;;;5074711;28;20900;-71
2022/10/30 10:50:35;;;;;;;6.83;4.30;;;;;;;;;;5073784;28;20452;-71
2022/10/30 10:53:06;;;;;;;20.43;5.63;;;;;;;;;;5074263;28;20456;-71
2022/10/30 10:55:35;;;;;;;15.40;5.70;;;;;;;;;;5068913;28;20475;-71
2022/10/30 10:58:06;;;;;;;12.20;5.33;;;;;;;;;;5074580;28;20445;-71
2022/10/30 11:00:34;;;;;;;7.53;4.73;;;;;;;;;;5074939;28;20932;-71
2022/10/30 11:03:07;;;;;;;15.27;6.00;;;;;;;;;;5074692;28;20566;-71
2022/10/30 11:05:35;;;;;;;10.00;4.80;;;;;;;;;;5073990;28;20884;-71
2022/10/30 11:08:10;;;;;;;13.77;4.43;;;;;;;;;;5073680;28;20460;-71
2022/10/30 11:10:38;;;;;;;15.90;4.63;;;;;;;;;;5073952;28;20451;-71
2022/10/30 11:13:10;;;;;;;9.07;4.93;;;;;;;;;;5073374;28;20555;-71
2022/10/30 11:15:43;;;;;;;10.20;5.30;;;;;;;;;;5067363;28;20825;-71
2022/10/30 11:18:13;;;;;;;14.33;5.40;;;;;;;;;;5072315;28;20464;-71
2022/10/30 11:20:47;;;;;;;15.17;5.97;;;;;;;;;;5072148;28;20585;-71
2022/10/30 11:23:40;;;;;;;14.00;5.50;;;;;;;;;;5073082;28;20463;-71
2022/10/30 11:26:40;;;;;;;12.50;4.93;;;;;;;;;;5073107;28;20452;-71
2022/10/30 11:29:12;;;;;;;11.27;5.47;;;;;;;;;;5010286;28;20497;-71
2022/10/30 11:31:40;;;;;;;12.23;7.17;;;;;;;;;;5005794;28;20557;-71
2022/10/30 11:34:14;;;;;;;10.90;5.20;;;;;;;;;;5021233;28;20726;-71
2022/10/30 11:36:41;;;;;;;8.90;4.80;;;;;;;;;;5065835;28;20445;-71
2022/10/30 11:39:18;;;;;;;11.00;4.77;;;;;;;;;;5072791;28;20774;-71
2022/10/30 11:41:47;;;;;;;10.63;5.00;;;;;;;;;;5053079;28;20496;-71
2022/10/30 11:44:14;;;;;;;9.50;5.10;;;;;;;;;;5053996;28;20469;-71
2022/10/30 11:46:42;;;;;;;11.60;5.70;;;;;;;;;;5053552;28;21017;-71
2022/10/30 11:49:23;;;;;;;13.37;4.37;;;;;;;;;;5052947;28;20472;-71
2022/10/30 11:51:51;;;;;;;6.13;4.30;;;;;;;;;;5064188;28;20472;-71
2022/10/30 11:54:20;;;;;;;14.83;5.60;;;;;;;;;;5072365;28;20465;-71
2022/10/30 11:56:48;;;;;;;11.80;4.63;;;;;;;;;;5070388;28;20456;-71
2022/10/30 11:59:18;;;;;;;12.00;4.00;;;;;;;;;;5060261;28;20614;-71
2022/10/30 12:01:59;;;;;;;8.83;4.50;;;;;;;;;;5062344;28;20452;-71
2022/10/30 12:04:27;;;;;;;17.43;5.70;;;;;;;;;;5072510;28;20460;-71
2022/10/30 12:07:07;;;;;;;11.83;4.40;;;;;;;;;;5071183;28;20467;-71
2022/10/30 12:09:41;;;;;;;12.80;4.40;;;;;;;;;;5070663;28;20517;-71
2022/10/30 12:12:23;;;;;;;10.70;5.17;;;;;;;;;;5059904;28;20524;-71
2022/10/30 12:14:51;;;;;;;6.80;4.10;;;;;;;;;;5052682;28;20769;-71
2022/10/30 12:17:19;;;;;;;10.97;5.87;;;;;;;;;;5052112;28;20489;-71
2022/10/30 12:19:47;;;;;;;14.60;5.87;;;;;;;;;;5053859;28;20489;-71
2022/10/30 12:22:24;;;;;;;9.70;4.20;;;;;;;;;;5053435;28;20450;-72
2022/10/30 12:24:50;;;;;;;16.20;4.10;;;;;;;;;;5051593;28;20491;-71
2022/10/30 12:27:18;;;;;;;11.17;5.10;;;;;;;;;;5052094;28;20450;-71
2022/10/30 12:29:49;;;;;;;7.40;4.30;;;;;;;;;;5051153;28;20476;-71
2022/10/30 12:32:17;;;;;;;12.83;4.90;;;;;;;;;;5066653;28;20468;-72
2022/10/30 12:34:46;;;;;;;9.10;4.27;;;;;;;;;;5072401;28;20541;-71
2022/10/30 12:37:52;;;;;;;9.50;4.43;;;;;;;;;;5072491;28;20493;-71
2022/10/30 12:40:24;;;;;;;11.20;5.00;;;;;;;;;;5065142;28;20520;-71
2022/10/30 12:42:57;;;;;;;8.20;3.83;;;;;;;;;;5051579;28;20464;-71
2022/10/30 12:45:27;;;;;;;10.73;4.00;;;;;;;;;;5052194;28;20457;-71
2022/10/30 12:47:57;;;;;;;14.77;4.90;;;;;;;;;;5050838;28;20453;-71
2022/10/30 12:50:27;;;;;;;6.87;3.70;;;;;;;;;;5049774;28;20733;-71
2022/10/30 12:52:57;;;;;;;11.77;5.13;;;;;;;;;;5047758;28;20441;-70
2022/10/30 12:55:27;;;;;;;9.07;4.00;;;;;;;;;;5057043;28;20560;-71
2022/10/30 12:57:58;;;;;;;5.60;4.10;;;;;;;;;;5064803;28;20749;-71
2022/10/30 13:00:26;;;;;;;8.60;4.30;;;;;;;;;;5059844;28;20485;-71
2022/10/30 13:02:57;;;;;;;12.33;5.07;;;;;;;;;;5073335;28;20455;-71
2022/10/30 13:05:32;;;;;;;10.73;4.10;;;;;;;;;;5071471;28;20480;-71
2022/10/30 13:08:10;;;;;;;11.33;4.47;;;;;;;;;;5071659;28;20460;-70
2022/10/30 13:10:40;;;;;;;10.37;4.63;;;;;;;;;;5072333;28;20499;-72
2022/10/30 13:13:10;;;;;;;14.03;5.50;;;;;;;;;;5069943;28;21731;-72
2022/10/30 13:15:39;;;;;;;10.40;5.30;;;;;;;;;;5051834;28;20495;-74
2022/10/30 13:18:14;;;;;;;6.87;3.93;;;;;;;;;;5052824;28;20497;-72
2022/10/30 13:20:44;;;;;;;17.17;5.03;;;;;;;;;;5049852;28;20536;-71
2022/10/30 13:23:12;;;;;;;6.00;3.70;;;;;;;;;;5067325;28;20468;-71
2022/10/30 13:25:42;;;;;;;9.90;4.13;;;;;;;;;;5070505;28;20495;-71
2022/10/30 13:28:13;;;;;;;15.00;5.30;;;;;;;;;;5072740;28;20536;-71
2022/10/30 13:30:40;;;;;;;7.60;3.80;;;;;;;;;;5071145;28;20566;-71
2022/10/30 13:33:14;;;;;;;8.90;4.87;;;;;;;;;;5069045;28;20453;-70
2022/10/30 13:35:46;;;;;;;7.17;4.40;;;;;;;;;;5069660;28;20444;-70
2022/10/30 13:38:30;;;;;;;6.00;3.60;;;;;;;;;;5069608;28;20509;-71
2022/10/30 13:41:00;;;;;;;11.83;4.43;;;;;;;;;;5072131;28;20484;-71
2022/10/30 13:43:32;;;;;;;10.20;4.10;;;;;;;;;;5075118;28;20452;-71
2022/10/30 13:46:11;;;;;;;17.83;5.50;;;;;;;;;;5074494;28;20477;-71
2022/10/30 13:48:45;;;;;;;17.00;5.10;;;;;;;;;;5073470;28;20464;-71
2022/10/30 13:51:25;;;;;;;11.93;5.00;;;;;;;;;;5074061;28;20456;-71
2022/10/30 13:53:56;;;;;;;9.07;4.13;;;;;;;;;;5072776;28;20521;-71
2022/10/30 13:56:23;;;;;;;10.37;4.57;;;;;;;;;;5073499;28;20472;-72
2022/10/30 13:58:55;;;;;;;10.30;4.73;;;;;;;;;;5071602;28;20448;-71
2022/10/30 14:01:28;;;;;;;13.40;4.73;;;;;;;;;;5070897;28;20550;-72
2022/10/30 14:03:59;;;;;;;9.33;4.63;;;;;;;;;;5069969;28;20974;-71
2022/10/30 14:06:33;;;;;;;8.97;4.27;;;;;;;;;;5070651;28;20522;-71
2022/10/30 14:09:06;;;;;;;8.20;4.60;;;;;;;;;;5073959;28;20494;-71
2022/10/30 14:11:33;;;;;;;13.23;4.30;;;;;;;;;;5056072;28;20456;-71
2022/10/30 14:14:04;;;;;;;7.37;4.00;;;;;;;;;;5054804;28;20449;-72
2022/10/30 14:16:36;;;;;;;9.43;4.30;;;;;;;;;;5053431;28;20477;-71
2022/10/30 14:19:04;;;;;;;9.00;5.07;;;;;;;;;;5071948;28;20452;-71
2022/10/30 14:21:36;;;;;;;16.50;4.93;;;;;;;;;;5070934;28;20515;-70
2022/10/30 14:24:14;;;;;;;9.17;4.33;;;;;;;;;;5071856;28;20528;-70
2022/10/30 14:26:43;;;;;;;10.73;4.23;;;;;;;;;;5071141;28;20513;-70
2022/10/30 14:29:28;;;;;;;11.93;5.77;;;;;;;;;;5071616;28;20677;-69
2022/10/30 14:31:55;;;;;;;10.53;4.87;;;;;;;;;;5073010;28;20428;-69
2022/10/30 14:34:41;;;;;;;15.53;5.73;;;;;;;;;;5072830;28;20498;-69
2022/10/30 14:37:09;;;;;;;8.70;4.93;;;;;;;;;;5072557;28;20877;-69
2022/10/30 14:39:39;;;;;;;15.17;4.67;;;;;;;;;;5071835;28;20592;-69
2022/10/30 14:42:10;;;;;;;14.47;5.00;;;;;;;;;;5071916;28;20526;-69
2022/10/30 14:44:50;;;;;;;7.03;3.13;;;;;;;;;;5071504;28;20763;-69
2022/10/30 14:47:43;;;;;;;8.33;4.30;;;;;;;;;;5069809;28;20998;-69